Karup Airport


Codes: EKKA/KRP
Name: Karup Airport
City: Karup
Country: Denmark
Elevation: 170 ft.
Wikipedia:

Photos at Karup Airport


   Photos courtesy of SpottingLog. You can add your own sightings and photos by signing up for a free trial today.



No photos found.

Weather at Karup Airport


Time (UTC)DescriptionTempratureWindCloud coverageVisibilityPressureHumidity
19-Apr-2024 03:00Light Rain4°C11 mph, SE100%3327m1003hPa93%
19-Apr-2024 06:00Moderate Rain4°C16 mph, E100%526m1002hPa94%
19-Apr-2024 09:00Moderate Rain4°C16 mph, N100%0m1002hPa96%
19-Apr-2024 12:00Light Rain4°C18 mph, NE100%10000m1004hPa89%
19-Apr-2024 15:00Overcast Clouds7°C16 mph, NE94%10000m1006hPa54%
19-Apr-2024 18:00Broken Clouds5°C11 mph, NE81%10000m1008hPa62%
19-Apr-2024 21:00Few Clouds2°C9 mph, N19%10000m1012hPa80%
20-Apr-2024 00:00Few Clouds1°C7 mph, N20%10000m1013hPa82%
20-Apr-2024 03:00Broken Clouds1°C4 mph, N70%10000m1015hPa78%
20-Apr-2024 06:00Overcast Clouds3°C2 mph, N85%10000m1017hPa69%
20-Apr-2024 09:00Overcast Clouds6°C2 mph, NW100%10000m1018hPa57%
20-Apr-2024 12:00Light Rain7°C7 mph, NW99%2313m1020hPa60%
20-Apr-2024 15:00Light Rain7°C9 mph, N99%10000m1020hPa63%
20-Apr-2024 18:00Light Rain6°C7 mph, N87%10000m1022hPa73%
20-Apr-2024 21:00Few Clouds3°C7 mph, NE11%10000m1025hPa86%
21-Apr-2024 00:00Few Clouds2°C4 mph, NE14%10000m1026hPa85%
21-Apr-2024 03:00Clear Sky1°C4 mph, NE8%10000m1028hPa81%
21-Apr-2024 06:00Clear Sky4°C4 mph, N10%10000m1029hPa74%
21-Apr-2024 09:00Few Clouds8°C11 mph, NE22%10000m1030hPa56%
21-Apr-2024 12:00Scattered Clouds9°C13 mph, NE45%10000m1030hPa41%
21-Apr-2024 15:00Overcast Clouds8°C13 mph, NE99%10000m1030hPa44%
21-Apr-2024 18:00Overcast Clouds5°C9 mph, NE99%10000m1031hPa55%
21-Apr-2024 21:00Broken Clouds3°C9 mph, N74%10000m1031hPa63%
22-Apr-2024 00:00Broken Clouds1°C9 mph, N59%10000m1031hPa67%
22-Apr-2024 03:00Overcast Clouds1°C7 mph, N87%10000m1030hPa68%
22-Apr-2024 06:00Broken Clouds3°C7 mph, NE71%10000m1029hPa61%
22-Apr-2024 09:00Clear Sky7°C9 mph, NE2%10000m1028hPa45%
22-Apr-2024 12:00Clear Sky8°C9 mph, NE4%10000m1026hPa38%
22-Apr-2024 15:00Few Clouds9°C7 mph, NE11%10000m1025hPa38%
22-Apr-2024 18:00Scattered Clouds6°C9 mph, N41%10000m1024hPa55%
22-Apr-2024 21:00Few Clouds2°C4 mph, E14%10000m1024hPa69%
23-Apr-2024 00:00Clear Sky1°C0 mph, SE8%10000m1023hPa77%
23-Apr-2024 03:00Clear Sky1°C0 mph, SW0%10000m1022hPa77%
23-Apr-2024 06:00Clear Sky3°C4 mph, SW0%10000m1021hPa59%
23-Apr-2024 09:00Clear Sky8°C9 mph, W0%10000m1020hPa51%
23-Apr-2024 12:00Scattered Clouds9°C16 mph, W38%10000m1018hPa49%
23-Apr-2024 15:00Overcast Clouds8°C18 mph, W100%10000m1016hPa62%
23-Apr-2024 18:00Light Rain5°C16 mph, SW100%10000m1013hPa87%
23-Apr-2024 21:00Light Rain5°C13 mph, W99%10000m1012hPa79%
24-Apr-2024 00:00Overcast Clouds4°C13 mph, W94%10000m1010hPa77%